Flight Track Log - Related Links

Times and Time Zones

All times are in EDT time to prevent confusion due to time zone crossing. See the UAL4206 flight status page for this flight to view local times or setup timezone preferences in your user account.


Time Position Orientation Groundspeed Altitude Reporting Facility
EDT Latitude Longitude Course Direction KTS MPH feet Rate Location/Type
Thu 08:56:33 PM 29.5178 -98.4550 10° North 162 186 1,500  Level Houston Center
Thu 08:57:22 PM 29.4933 -98.4194 128° Southeast 184 212 2,900 2,092 Climbing Houston Center
Thu 08:58:22 PM 29.5200 -98.3658 60° Northeast 233 268 5,300 2,224 Climbing Houston Center
Thu 08:59:45 PM 29.6131 -98.3689 358° North 245 282 8,200 2,234 Climbing Houston Center
Thu 09:00:00 PM 29.9688 -98.4062 10° North  Level FlightAware Approximate
Thu 09:00:47 PM 29.6789 -98.3725 357° North 239 275 10,700  Level Houston Center
Thu 09:01:00 PM 30.0771 -98.3846 10° North  Level FlightAware Approximate
Thu 09:01:48 PM 29.7444 -98.3761 357° North 237 273 12,600  Level Houston Center
Thu 09:02:50 PM 29.8158 -98.4097 338° Northwest 255 293 14,800 1,887 Climbing Houston Center
Thu 09:03:52 PM 29.8811 -98.4444 335° Northwest 259 298 16,500 1,659 Climbing Houston Center
Thu 09:04:53 PM 29.9528 -98.4828 335° Northwest 251 289 18,200 1,512 Climbing Houston Center
Thu 09:05:55 PM 30.0231 -98.5194 336° Northwest 272 313 19,600 1,403 Climbing Houston Center
Thu 09:06:57 PM 30.0953 -98.5586 335° Northwest 285 328 21,100 1,512 Climbing Houston Center
Thu 09:07:58 PM 30.1761 -98.6017 335° Northwest 296 341 22,700 1,463 Climbing Houston Center
Thu 09:09:00 PM 30.2539 -98.6428 335° Northwest 306 352 24,100 1,366 Climbing Houston Center
Thu 09:10:01 PM 30.3342 -98.6858 335° Northwest 308 354 25,500 1,415 Climbing Houston Center
Thu 09:11:03 PM 30.4158 -98.7292 335° Northwest 312 359 27,000 1,366 Climbing Houston Center
Thu 09:12:04 PM 30.4950 -98.7719 335° Northwest 318 366 28,300 1,317 Climbing Houston Center
Thu 09:13:06 PM 30.5781 -98.8161 335° Northwest 323 372 29,700 1,220 Climbing Houston Center
Thu 09:14:07 PM 30.6619 -98.8611 335° Northwest 326 375 30,800 1,073 Climbing Houston Center
Thu 09:15:09 PM 30.7472 -98.9078 335° Northwest 333 383 31,900 1,024 Climbing Houston Center
Thu 09:16:10 PM 30.8331 -98.9536 335° Northwest 335 386 32,900 976 Climbing Houston Center
Thu 09:17:12 PM 30.9194 -99.0006 335° Northwest 339 390 33,900 871 Climbing Houston Center
Thu 09:18:14 PM 31.0083 -99.0483 335° Northwest 344 396 34,700 683 Climbing Houston Center
Thu 09:19:15 PM 31.0978 -99.0972 335° Northwest 350 403 35,300 439 Climbing Houston Center
Thu 09:20:17 PM 31.1908 -99.1486 335° Northwest 362 417 35,600 293 Climbing Houston Center
Thu 09:21:18 PM 31.2886 -99.2011 335° Northwest 373 429 35,900 195 Climbing Houston Center
Thu 09:22:20 PM 31.3867 -99.2567 334° Northwest 387 445 36,000 48 Climbing Houston Center
Thu 09:23:22 PM 31.5092 -99.3228 335° Northwest 407 468 36,000  Level Houston Center
Thu 09:24:22 PM 31.6164 -99.3803 335° Northwest 416 479 36,000  Level Houston Center
Thu 09:25:24 PM 31.7247 -99.4397 335° Northwest 422 486 36,000  Level Houston Center
Thu 09:26:25 PM 31.8342 -99.5008 335° Northwest 429 494 36,000  Level Houston Center
Thu 09:27:27 PM 31.9369 -99.5578 335° Northwest 422 486 36,000  Level Houston Center
Thu 09:28:28 PM 32.0408 -99.6147 335° Northwest 414 476 36,000  Level Houston Center
Thu 09:29:30 PM 32.1467 -99.6744 334° Northwest 398 458 36,000  Level Houston Center
Thu 09:30:31 PM 32.2439 -99.7300 334° Northwest 386 444 36,000  Level Houston Center
Thu 09:31:33 PM 32.3392 -99.7833 335° Northwest 377 434 36,000  Level Houston Center
Thu 09:32:43 PM 32.4425 -99.8431 334° Northwest 373 429 36,000  Level Fort Worth Center
Thu 09:33:43 PM 32.5331 -99.9022 331° Northwest 363 418 36,000  Level Fort Worth Center
Thu 09:34:43 PM 32.6278 -99.9614 332° Northwest 369 425 36,000  Level Fort Worth Center
Thu 09:35:43 PM 32.7247 -100.0186 334° Northwest 386 444 36,000  Level Fort Worth Center
Thu 09:36:43 PM 32.8256 -100.0883 330° Northwest 385 443 36,000  Level Fort Worth Center
Thu 09:37:43 PM 32.9183 -100.1481 332° Northwest 380 437 36,000  Level Fort Worth Center
Thu 09:38:43 PM 33.0089 -100.2053 332° Northwest 375 432 36,000  Level Fort Worth Center
Thu 09:39:43 PM 33.1014 -100.2653 331° Northwest 375 432 36,000  Level Fort Worth Center
Thu 09:40:43 PM 33.1939 -100.3253 332° Northwest 375 432 36,000  Level Fort Worth Center
Thu 09:41:43 PM 33.2864 -100.3856 331° Northwest 375 432 36,000  Level Fort Worth Center
Thu 09:42:43 PM 33.3789 -100.4458 331° Northwest 375 432 36,000  Level Fort Worth Center
Thu 09:43:43 PM 33.4714 -100.5061 331° Northwest 375 432 36,000  Level Fort Worth Center
Thu 09:44:43 PM 33.5658 -100.5719 330° Northwest 370 426 36,000  Level Fort Worth Center
Thu 09:45:43 PM 33.6581 -100.6325 331° Northwest 370 426 36,000  Level Fort Worth Center
Thu 09:46:43 PM 33.7525 -100.6961 331° Northwest 376 433 36,000  Level Fort Worth Center
Thu 09:48:26 PM 33.9119 -100.7975 332° Northwest 382 440 36,000  Level Albuquerque Center
Thu 09:49:28 PM 34.0056 -100.8608 331° Northwest 385 443 36,000  Level Albuquerque Center
Thu 09:50:29 PM 34.0983 -100.9233 331° Northwest 384 442 36,000  Level Albuquerque Center
Thu 09:51:31 PM 34.1925 -100.9847 332° Northwest 385 443 36,000  Level Albuquerque Center
Thu 09:52:32 PM 34.2861 -101.0489 330° Northwest 386 444 36,000  Level Albuquerque Center
Thu 09:53:34 PM 34.3811 -101.1111 332° Northwest 389 448 36,000  Level Albuquerque Center
Thu 09:54:35 PM 34.4756 -101.1769 330° Northwest 390 449 36,000  Level Albuquerque Center
Thu 09:55:36 PM 34.5700 -101.2417 331° Northwest 390 449 36,000  Level Albuquerque Center
Thu 09:56:38 PM 34.6850 -101.3197 331° Northwest 392 451 36,000  Level Albuquerque Center
Thu 09:57:39 PM 34.7800 -101.3844 331° Northwest 393 452 36,000  Level Albuquerque Center
Thu 09:58:40 PM 34.8764 -101.4511 330° Northwest 396 456 36,000  Level Albuquerque Center
Thu 09:59:42 PM 34.9753 -101.5197 330° Northwest 398 458 36,000  Level Albuquerque Center
Thu 10:00:43 PM 35.0692 -101.6011 325° Northwest 410 472 36,000  Level Albuquerque Center
Thu 10:01:44 PM 35.1575 -101.6786 324° Northwest 411 473 36,000  Level Albuquerque Center
Thu 10:02:45 PM 35.2528 -101.7664 323° Northwest 422 486 36,000  Level Albuquerque Center
Thu 10:03:47 PM 35.3706 -101.8692 325° Northwest 436 502 36,000  Level Albuquerque Center
Thu 10:04:48 PM 35.4694 -101.9572 324° Northwest 439 505 36,000  Level Albuquerque Center
Thu 10:05:49 PM 35.5581 -102.0400 323° Northwest 437 503 36,000  Level Albuquerque Center
Thu 10:06:51 PM 35.6539 -102.1356 321° Northwest 442 509 36,000  Level Albuquerque Center
Thu 10:07:52 PM 35.7436 -102.2383 317° Northwest 443 510 36,000  Level Albuquerque Center
Thu 10:08:53 PM 35.8328 -102.3433 316° Northwest 443 510 36,000  Level Albuquerque Center
Thu 10:09:54 PM 35.9375 -102.4664 316° Northwest 436 502 36,000  Level Albuquerque Center
Thu 10:10:56 PM 36.0275 -102.5606 320° Northwest 429 494 36,000  Level Albuquerque Center
Thu 10:11:57 PM 36.1303 -102.6239 334° Northwest 419 482 36,000  Level Albuquerque Center
Thu 10:12:58 PM 36.2422 -102.6503 349° North 411 473 36,000  Level Albuquerque Center
Thu 10:14:00 PM 36.3550 -102.6594 356° North 406 467 36,000  Level Albuquerque Center
Thu 10:15:01 PM 36.4639 -102.6714 355° North 397 457 36,000  Level Albuquerque Center
Thu 10:16:02 PM 36.5711 -102.6817 356° North 389 448 36,000  Level Albuquerque Center
Thu 10:17:04 PM 36.6856 -102.6939 355° North 384 442 36,000  Level Albuquerque Center
Thu 10:18:05 PM 36.7864 -102.7042 355° North 381 438 36,000  Level Albuquerque Center
Thu 10:19:07 PM 36.9011 -102.7164 355° North 373 429 36,000  Level Albuquerque Center
Thu 10:20:08 PM 37.0011 -102.7269 355° North 373 429 36,000  Level Albuquerque Center
Thu 10:21:09 PM 37.1158 -102.7386 355° North 371 427 36,000 -341 Level Albuquerque Center
Thu 10:22:11 PM 37.2144 -102.7494 355° North 371 427 35,300 -780 Descending Albuquerque Center
Thu 10:23:12 PM 37.3128 -102.8011 337° Northwest 394 453 34,400 -650 Descending Albuquerque Center
Thu 10:24:11 PM 37.4250 -102.8742 333° Northwest 408 470 34,000 -198 Descending Denver Center
Thu 10:25:13 PM 37.5150 -102.9325 333° Northwest 392 451 34,000 -146 Level Denver Center
Thu 10:26:14 PM 37.6139 -103.0000 332° Northwest 370 426 33,700 -1,024 Descending Denver Center
Thu 10:27:16 PM 37.7036 -103.0594 332° Northwest 378 435 31,900 -1,790 Descending Denver Center
Thu 10:28:18 PM 37.7986 -103.1225 332° Northwest 399 459 30,000 -1,742 Descending Denver Center
Thu 10:29:20 PM 37.9044 -103.1947 332° Northwest 389 448 28,300 -968 Descending Denver Center
Thu 10:30:22 PM 37.9872 -103.2500 332° Northwest 356 410 28,000 -146 Descending Denver Center
Thu 10:31:23 PM 38.0733 -103.3072 332° Northwest 316 364 28,000 -49 Level Denver Center
Thu 10:32:25 PM 38.1478 -103.3578 332° Northwest 319 367 27,900 -532 Descending Denver Center
Thu 10:33:27 PM 38.2464 -103.4250 332° Northwest 356 410 26,900 -976 Descending Denver Center
Thu 10:34:28 PM 38.3339 -103.4847 332° Northwest 370 426 25,900 -1,073 Descending Denver Center
Thu 10:35:30 PM 38.4297 -103.5500 332° Northwest 355 409 24,700 -1,016 Descending Denver Center
Thu 10:36:32 PM 38.5114 -103.6061 332° Northwest 349 402 23,800 -1,024 Descending Denver Center
Thu 10:37:33 PM 38.6072 -103.6708 332° Northwest 350 403 22,600 -1,073 Descending Denver Center
Thu 10:38:35 PM 38.6875 -103.7272 331° Northwest 345 397 21,600 -871 Descending Denver Center
Thu 10:39:37 PM 38.7639 -103.7794 332° Northwest 329 379 20,800 -732 Descending Denver Center
Thu 10:40:38 PM 38.8494 -103.8383 332° Northwest 315 362 20,100 -390 Descending Denver Center
Thu 10:41:40 PM 38.9278 -103.8922 332° Northwest 316 364 20,000 -48 Descending Denver Center
Thu 10:42:42 PM 39.0042 -103.9442 332° Northwest 312 359 20,000  Level Denver Center
Thu 10:43:43 PM 39.0819 -104.0000 331° Northwest 318 366 20,000  Level Denver Center
Thu 10:44:45 PM 39.1600 -104.0536 332° Northwest 319 367 20,000 -439 Level Denver Center
Thu 10:45:46 PM 39.2428 -104.1222 327° Northwest 333 383 19,100 -976 Descending Denver Center
Thu 10:46:48 PM 39.3153 -104.1931 323° Northwest 305 351 18,000 -871 Descending Denver Center
Thu 10:47:50 PM 39.3842 -104.2542 326° Northwest 301 346 17,300 -829 Descending Denver Center
Thu 10:48:51 PM 39.4506 -104.3189 323° Northwest 299 344 16,300 -1,024 Descending Denver Center
Thu 10:49:53 PM 39.5206 -104.3833 325° Northwest 289 333 15,200 -1,024 Descending Denver Center
Thu 10:50:54 PM 39.5861 -104.4467 323° Northwest 298 343 14,200 -1,024 Descending Denver Center
Thu 10:51:56 PM 39.6589 -104.5147 324° Northwest 300 345 13,100 -1,065 Descending Denver Center
Thu 10:52:58 PM 39.7081 -104.5922 310° West 290 334 12,000 -1,024 Descending Denver Center
Thu 10:53:59 PM 39.7456 -104.6833 298° West 287 330 11,000 -634 Descending Denver Center
Thu 10:55:01 PM 39.7447 -104.7858 269° West 284 327 10,700 -732 Descending Denver Center
Thu 10:56:02 PM 39.7558 -104.8803 279° West 246 283 9,500 -1,122 Descending Denver Center
Thu 10:57:04 PM 39.8125 -104.8669 10° North 216 249 8,400 -1,065 Descending Denver Center

Login

Don't have an account? Register now (free) for customized features, flight alerts, and more!